Time;durP1;ratioP1;P1;durP2;ratioP2;P2;SDS_P1;SDS_P2;PMS_P1;PMS_P2;Temp;Humidity;BMP_temperature;BMP_pressure;BME280_temperature;BME280_humidity;BME280_pressure;Samples;Min_cycle;Max_cycle;Signal;HPM_P1;HPM_P2
2022/09/29 00:01:09;;;;;;;1.23;0.90;;;18.10;70.80;;;;;;5052092;28;20182;-69
2022/09/29 00:03:37;;;;;;;1.43;0.77;;;18.10;70.90;;;;;;5053127;28;20180;-68
2022/09/29 00:06:10;;;;;;;1.60;0.80;;;18.00;71.20;;;;;;5053741;28;20266;-68
2022/09/29 00:08:37;;;;;;;1.70;1.00;;;17.80;72.70;;;;;;5053570;28;20639;-69
2022/09/29 00:11:10;;;;;;;1.07;0.90;;;17.70;74.50;;;;;;5053305;28;20212;-67
2022/09/29 00:13:37;;;;;;;1.17;0.73;;;17.40;75.50;;;;;;5052731;28;20168;-68
2022/09/29 00:16:05;;;;;;;1.97;1.00;;;17.20;77.50;;;;;;5051188;28;20185;-68
2022/09/29 00:18:35;;;;;;;1.07;0.80;;;17.20;78.60;;;;;;5052771;28;20237;-67
2022/09/29 00:21:02;;;;;;;1.27;0.87;;;17.00;79.20;;;;;;5053434;28;20246;-68
2022/09/29 00:23:30;;;;;;;2.53;1.00;;;16.80;79.20;;;;;;5053629;28;20269;-68
2022/09/29 00:26:07;;;;;;;1.90;1.10;;;16.80;81.00;;;;;;5049429;28;20260;-68
2022/09/29 00:28:36;;;;;;;2.77;1.20;;;16.70;80.40;;;;;;5053000;28;20265;-70
2022/09/29 00:31:05;;;;;;;2.17;1.17;;;16.70;81.40;;;;;;5048203;28;20180;-69
2022/09/29 00:33:34;;;;;;;2.77;1.30;;;16.70;81.10;;;;;;5041526;28;20191;-70
2022/09/29 00:36:11;;;;;;;1.77;1.30;;;16.70;81.90;;;;;;5046982;28;20191;-69
2022/09/29 00:38:39;;;;;;;1.43;1.03;;;16.70;81.10;;;;;;5053094;28;20212;-70
2022/09/29 00:41:08;;;;;;;2.53;1.23;;;16.60;80.80;;;;;;5052615;28;20178;-70
2022/09/29 00:43:59;;;;;;;1.83;1.00;;;16.60;80.60;;;;;;5053051;28;20211;-72
2022/09/29 00:46:46;;;;;;;3.37;1.10;;;16.60;81.00;;;;;;5042776;28;20298;-71
2022/09/29 00:49:21;;;;;;;2.80;1.30;;;16.60;81.40;;;;;;5038740;28;20183;-70
2022/09/29 00:52:20;;;;;;;6.60;1.43;;;16.60;81.40;;;;;;5042833;28;20201;-71
2022/09/29 00:54:52;;;;;;;2.77;1.27;;;16.70;81.70;;;;;;5052432;28;20260;-71
2022/09/29 00:57:25;;;;;;;2.57;1.30;;;17.00;81.90;;;;;;5044460;28;20175;-72
2022/09/29 01:00:13;;;;;;;4.07;1.20;;;17.10;81.30;;;;;;5051325;28;20638;-71
2022/09/29 01:02:55;;;;;;;4.00;1.33;;;17.30;81.00;;;;;;5051884;28;20209;-70
2022/09/29 01:05:32;;;;;;;3.30;1.10;;;17.70;79.90;;;;;;5049877;28;20227;-68
2022/09/29 01:08:08;;;;;;;2.73;1.20;;;18.30;77.80;;;;;;5050991;28;20653;-68
2022/09/29 01:10:38;;;;;;;3.27;1.40;;;18.40;76.50;;;;;;5051895;28;20593;-69
2022/09/29 01:13:05;;;;;;;3.33;1.20;;;18.90;76.00;;;;;;5048414;28;20192;-67
2022/09/29 01:15:33;;;;;;;1.13;0.63;;;18.80;74.40;;;;;;5050241;28;20187;-66
2022/09/29 01:18:01;;;;;;;0.80;0.73;;;18.80;73.40;;;;;;5051020;28;20230;-69
2022/09/29 01:20:36;;;;;;;2.03;1.27;;;18.70;74.40;;;;;;5051383;28;20203;-69
2022/09/29 01:23:52;;;;;;;2.00;1.03;;;18.80;74.00;;;;;;5049878;28;20622;-68
2022/09/29 01:26:23;;;;;;;1.83;0.83;;;19.00;72.90;;;;;;5042621;28;20569;-68
2022/09/29 01:28:59;;;;;;;1.73;0.70;;;19.30;71.60;;;;;;5049756;28;20599;-68
2022/09/29 01:31:52;;;;;;;2.13;0.90;;;19.50;70.30;;;;;;5065770;28;20186;-70
2022/09/29 01:34:49;;;;;;;2.17;1.10;;;19.60;71.20;;;;;;5067275;28;20183;-69
2022/09/29 01:37:43;;;;;;;1.27;0.80;;;19.60;70.20;;;;;;5050900;28;20184;-67
2022/09/29 01:40:22;;;;;;;1.67;0.97;;;19.60;69.30;;;;;;5056701;28;20168;-69
2022/09/29 01:43:15;;;;;;;2.83;1.00;;;19.80;70.30;;;;;;5056184;28;20230;-68
2022/09/29 01:45:49;;;;;;;3.73;1.10;;;19.60;69.40;;;;;;5048146;28;20199;-68
2022/09/29 01:48:24;;;;;;;4.20;1.10;;;19.60;68.20;;;;;;5056320;28;20267;-68
2022/09/29 01:50:56;;;;;;;2.50;0.83;;;19.50;69.50;;;;;;5049796;28;20207;-68
2022/09/29 01:53:36;;;;;;;1.10;0.67;;;19.30;68.70;;;;;;5062482;28;20195;-69
2022/09/29 01:56:08;;;;;;;4.23;1.20;;;19.10;70.30;;;;;;5056070;28;20238;-69
2022/09/29 01:58:58;;;;;;;1.40;0.90;;;19.30;71.70;;;;;;5054991;28;20268;-68
2022/09/29 02:01:33;;;;;;;5.33;1.27;;;19.10;74.60;;;;;;5052915;28;20186;-70
2022/09/29 02:04:08;;;;;;;3.03;1.03;;;18.70;77.20;;;;;;5064030;28;20179;-70
2022/09/29 02:06:45;;;;;;;5.90;1.30;;;18.20;79.00;;;;;;5051233;28;20208;-69
2022/09/29 02:09:18;;;;;;;3.53;1.40;;;17.90;79.70;;;;;;5043573;28;20179;-70
2022/09/29 02:11:47;;;;;;;2.93;1.10;;;18.20;79.20;;;;;;5053751;28;20191;-72
2022/09/29 02:14:25;;;;;;;5.00;1.50;;;18.90;78.30;;;;;;5050574;28;20219;-70
2022/09/29 02:17:07;;;;;;;5.90;1.40;;;19.10;76.60;;;;;;5050328;28;20328;-68
2022/09/29 02:19:38;;;;;;;2.93;1.10;;;19.10;75.10;;;;;;5048718;28;20669;-70
2022/09/29 02:22:05;;;;;;;1.73;1.23;;;19.50;73.10;;;;;;5053156;28;20558;-68
2022/09/29 02:24:32;;;;;;;3.47;1.30;;;19.70;72.70;;;;;;5054315;28;20909;-69
2022/09/29 02:27:00;;;;;;;2.30;0.93;;;19.90;71.30;;;;;;5054015;28;20225;-69
2022/09/29 02:29:27;;;;;;;2.23;0.80;;;20.20;70.20;;;;;;5054384;28;20184;-69
2022/09/29 02:32:00;;;;;;;3.93;1.30;;;20.30;69.90;;;;;;5048221;28;20184;-70
2022/09/29 02:34:31;;;;;;;4.80;1.30;;;20.60;69.10;;;;;;5049085;28;20242;-69
2022/09/29 02:36:58;;;;;;;8.20;1.70;;;20.40;69.70;;;;;;5042750;28;20235;-68
2022/09/29 02:39:46;;;;;;;6.20;2.10;;;20.20;69.90;;;;;;5052953;28;20813;-69
2022/09/29 02:42:18;;;;;;;7.73;2.17;;;20.30;70.30;;;;;;5054870;28;20231;-69
2022/09/29 02:45:02;;;;;;;10.57;1.67;;;20.40;70.10;;;;;;5055236;28;20176;-69
2022/09/29 02:48:02;;;;;;;7.27;1.67;;;20.50;69.60;;;;;;5054401;28;20203;-70
2022/09/29 02:51:02;;;;;;;8.07;2.00;;;20.50;69.30;;;;;;5053373;28;20172;-70
2022/09/29 02:54:05;;;;;;;5.57;1.83;;;20.50;69.30;;;;;;5055248;28;20175;-69
2022/09/29 02:56:56;;;;;;;6.47;1.30;;;20.60;68.30;;;;;;5032091;28;20180;-68
2022/09/29 02:59:54;;;;;;;3.70;1.23;;;20.50;68.10;;;;;;5045123;28;20223;-69
2022/09/29 03:02:27;;;;;;;4.70;1.40;;;20.80;67.50;;;;;;5055142;28;20183;-70
2022/09/29 03:04:54;;;;;;;3.13;1.23;;;21.10;66.70;;;;;;5054788;28;20577;-69
2022/09/29 03:07:21;;;;;;;4.30;1.10;;;21.30;63.50;;;;;;5052769;28;20211;-68
2022/09/29 03:09:49;;;;;;;7.33;2.10;;;21.30;63.70;;;;;;5048069;28;20266;-70
2022/09/29 03:12:17;;;;;;;5.90;1.40;;;21.90;63.70;;;;;;5054621;28;20188;-70
2022/09/29 03:14:44;;;;;;;7.07;1.30;;;22.20;61.90;;;;;;5054474;28;20241;-70
2022/09/29 03:17:11;;;;;;;6.43;1.30;;;21.40;63.20;;;;;;5054951;28;20571;-70
2022/09/29 03:19:39;;;;;;;3.00;1.13;;;20.90;64.90;;;;;;5054198;28;20709;-70
2022/09/29 03:22:06;;;;;;;4.30;1.20;;;21.20;64.00;;;;;;5054559;28;20206;-69
2022/09/29 03:24:34;;;;;;;7.97;1.20;;;20.60;66.00;;;;;;5050691;28;20647;-69
2022/09/29 03:27:03;;;;;;;5.40;1.80;;;20.00;67.70;;;;;;5053628;28;20243;-68
2022/09/29 03:29:31;;;;;;;6.87;1.87;;;20.40;67.90;;;;;;5054685;28;20631;-68
2022/09/29 03:32:01;;;;;;;6.80;2.00;;;21.20;65.80;;;;;;5054588;28;20179;-67
2022/09/29 03:34:28;;;;;;;6.37;1.40;;;21.80;62.80;;;;;;5054322;28;20207;-69
2022/09/29 03:36:56;;;;;;;7.40;1.80;;;21.80;63.50;;;;;;5054254;28;20184;-70
2022/09/29 03:39:25;;;;;;;7.73;1.83;;;22.20;61.80;;;;;;5054439;28;20187;-69
2022/09/29 03:41:52;;;;;;;7.57;1.70;;;22.20;60.80;;;;;;5047941;28;20236;-69
2022/09/29 03:44:20;;;;;;;6.00;1.20;;;22.40;60.00;;;;;;5050881;28;20535;-66
2022/09/29 03:46:47;;;;;;;9.33;1.67;;;21.80;60.80;;;;;;5053939;28;20260;-68
2022/09/29 03:49:15;;;;;;;6.07;1.47;;;21.90;62.10;;;;;;5051982;28;20297;-69
2022/09/29 03:51:43;;;;;;;5.53;1.40;;;21.30;61.70;;;;;;5046822;28;20241;-69
2022/09/29 03:54:12;;;;;;;8.23;1.70;;;21.30;62.40;;;;;;5050672;28;20290;-68
2022/09/29 03:56:39;;;;;;;4.67;1.50;;;21.60;62.20;;;;;;5047594;28;20554;-69
2022/09/29 03:59:09;;;;;;;7.77;2.03;;;21.30;63.20;;;;;;5038256;28;20643;-69
2022/09/29 04:01:37;;;;;;;8.87;1.70;;;20.80;64.70;;;;;;5048880;28;20187;-67
2022/09/29 04:04:08;;;;;;;9.83;1.83;;;20.00;70.40;;;;;;5046389;28;20329;-66
2022/09/29 04:06:35;;;;;;;8.00;2.13;;;19.00;79.40;;;;;;5045995;28;20216;-66
2022/09/29 04:09:03;;;;;;;4.93;1.40;;;18.80;81.00;;;;;;5050459;28;20545;-68
2022/09/29 04:11:31;;;;;;;8.23;2.07;;;19.10;79.00;;;;;;5053887;28;20180;-70
2022/09/29 04:13:58;;;;;;;14.27;2.50;;;19.90;78.50;;;;;;5049991;28;20179;-68
2022/09/29 04:16:26;;;;;;;10.83;2.43;;;19.80;76.50;;;;;;5048565;28;20227;-68
2022/09/29 04:18:53;;;;;;;8.43;2.27;;;19.60;77.80;;;;;;5051818;28;20184;-67
2022/09/29 04:21:20;;;;;;;14.40;1.97;;;19.20;78.40;;;;;;5053469;28;20187;-69
2022/09/29 04:23:48;;;;;;;8.13;1.77;;;19.10;79.00;;;;;;5053032;28;20248;-68
2022/09/29 04:26:16;;;;;;;10.17;1.90;;;19.30;79.60;;;;;;5050791;28;20302;-68
2022/09/29 04:28:43;;;;;;;8.63;1.73;;;19.30;78.10;;;;;;5046049;28;20188;-68
2022/09/29 04:31:11;;;;;;;11.07;2.20;;;19.80;75.60;;;;;;5051511;28;20199;-68
2022/09/29 04:33:38;;;;;;;10.23;1.30;;;19.20;77.90;;;;;;5045732;28;20188;-67
2022/09/29 04:36:06;;;;;;;4.53;1.37;;;18.10;82.40;;;;;;5043301;28;20191;-66
2022/09/29 04:38:34;;;;;;;7.80;1.63;;;17.30;83.90;;;;;;5041305;28;20643;-68
2022/09/29 04:41:01;;;;;;;4.67;1.20;;;17.20;85.20;;;;;;5049832;28;20196;-69
2022/09/29 04:43:28;;;;;;;7.83;1.70;;;17.10;85.90;;;;;;5048887;28;20200;-69
2022/09/29 04:46:06;;;;;;;7.07;1.67;;;17.50;85.90;;;;;;5053538;28;20227;-68
2022/09/29 04:48:35;;;;;;;5.97;1.97;;;17.80;85.40;;;;;;5048609;28;20201;-67
2022/09/29 04:51:06;;;;;;;3.73;1.23;;;17.80;84.50;;;;;;5052253;28;20303;-67
2022/09/29 04:53:34;;;;;;;2.63;1.10;;;17.60;83.90;;;;;;5056759;28;20192;-68
2022/09/29 04:56:05;;;;;;;7.20;1.57;;;17.30;84.50;;;;;;5050808;28;20241;-66
2022/09/29 04:58:33;;;;;;;7.73;1.57;;;17.00;85.80;;;;;;5050683;28;20184;-67
2022/09/29 05:01:08;;;;;;;4.07;1.20;;;16.80;86.50;;;;;;5052714;28;20518;-67
2022/09/29 05:03:36;;;;;;;7.67;2.03;;;16.70;86.90;;;;;;5050071;28;20656;-67
2022/09/29 05:06:04;;;;;;;9.30;2.03;;;17.00;87.70;;;;;;5064279;28;20698;-67
2022/09/29 05:08:31;;;;;;;9.30;1.97;;;16.90;87.70;;;;;;5052447;28;20530;-68
2022/09/29 05:10:58;;;;;;;4.97;1.77;;;16.70;87.30;;;;;;5052241;28;20240;-68
2022/09/29 05:13:25;;;;;;;8.70;2.17;;;16.50;88.20;;;;;;5049964;28;20190;-67
2022/09/29 05:15:56;;;;;;;11.60;2.30;;;16.50;89.10;;;;;;5050659;28;20215;-67
2022/09/29 05:18:24;;;;;;;12.87;2.60;;;16.30;89.00;;;;;;5052703;28;20532;-67
2022/09/29 05:20:52;;;;;;;14.67;2.47;;;16.40;89.80;;;;;;5052590;28;20209;-66
2022/09/29 05:23:20;;;;;;;11.50;2.60;;;16.50;89.60;;;;;;5052434;28;20205;-68
2022/09/29 05:25:48;;;;;;;12.87;2.77;;;16.80;88.60;;;;;;5051068;28;20201;-67
2022/09/29 05:28:15;;;;;;;13.87;2.00;;;17.30;87.80;;;;;;5050717;28;20197;-69
2022/09/29 05:30:42;;;;;;;12.70;1.97;;;17.70;86.20;;;;;;5050224;28;20266;-69
2022/09/29 05:33:10;;;;;;;10.93;2.17;;;18.50;85.60;;;;;;5052476;28;20213;-70
2022/09/29 05:35:37;;;;;;;13.77;2.37;;;18.70;82.30;;;;;;5051976;28;20188;-67
2022/09/29 05:38:04;;;;;;;8.93;1.83;;;18.70;82.40;;;;;;5052456;28;20190;-66
2022/09/29 05:40:32;;;;;;;10.40;1.93;;;19.50;78.60;;;;;;5052172;28;20223;-69
2022/09/29 05:42:59;;;;;;;9.77;1.73;;;19.30;77.50;;;;;;5052052;28;20337;-68
2022/09/29 05:45:27;;;;;;;5.77;1.93;;;18.70;77.90;;;;;;5032864;28;20203;-67
2022/09/29 05:47:55;;;;;;;6.87;1.70;;;18.80;78.60;;;;;;5049185;28;20191;-68
2022/09/29 05:50:22;;;;;;;14.30;2.27;;;19.30;77.90;;;;;;5051451;28;20181;-69
2022/09/29 05:52:51;;;;;;;14.10;2.60;;;20.00;75.10;;;;;;5052055;28;20179;-68
2022/09/29 05:55:19;;;;;;;13.30;2.17;;;20.30;74.10;;;;;;5052241;28;20180;-68
2022/09/29 05:57:49;;;;;;;8.90;2.30;;;19.90;75.10;;;;;;5051375;28;20566;-67
2022/09/29 06:00:17;;;;;;;13.00;2.80;;;20.10;75.40;;;;;;5050045;28;20192;-68
2022/09/29 06:02:44;;;;;;;12.03;2.17;;;20.40;74.30;;;;;;5037238;28;20238;-69
2022/09/29 06:05:11;;;;;;;14.80;2.87;;;19.60;76.20;;;;;;5048939;28;20249;-67
2022/09/29 06:07:39;;;;;;;11.73;2.43;;;19.10;77.80;;;;;;5052101;28;20269;-68
2022/09/29 06:10:06;;;;;;;11.17;2.43;;;18.60;80.30;;;;;;5050978;28;20168;-67
2022/09/29 06:12:35;;;;;;;16.77;2.10;;;18.20;80.70;;;;;;5049277;28;20298;-69
2022/09/29 06:15:04;;;;;;;13.00;2.03;;;18.30;80.10;;;;;;5050798;28;20184;-69
2022/09/29 06:17:33;;;;;;;16.10;2.13;;;18.20;80.20;;;;;;5048018;28;20274;-68
2022/09/29 06:20:01;;;;;;;10.87;1.90;;;18.10;79.60;;;;;;5045640;28;20230;-68
2022/09/29 06:22:28;;;;;;;9.87;1.90;;;18.00;79.70;;;;;;5041717;28;20194;-68
2022/09/29 06:24:56;;;;;;;13.37;2.00;;;17.90;80.10;;;;;;5042743;28;20192;-68
2022/09/29 06:27:23;;;;;;;9.40;2.43;;;18.00;80.80;;;;;;5055533;28;20229;-69
2022/09/29 06:29:51;;;;;;;17.23;2.77;;;18.00;81.70;;;;;;5054868;28;20646;-69
2022/09/29 06:32:18;;;;;;;14.50;3.17;;;18.00;81.30;;;;;;5052419;28;20270;-68
2022/09/29 06:37:38;;;;;;;17.53;3.30;;;18.30;79.80;;;;;;5054630;28;20199;-68
2022/09/29 06:40:07;;;;;;;12.57;3.43;;;18.20;80.70;;;;;;5054902;28;20546;-69
2022/09/29 06:42:35;;;;;;;15.63;2.50;;;17.90;81.00;;;;;;5053978;28;20288;-68
2022/09/29 06:45:03;;;;;;;11.37;2.77;;;16.80;85.60;;;;;;5053305;28;20194;-67
2022/09/29 06:47:31;;;;;;;14.43;2.93;;;16.30;87.20;;;;;;5047283;28;20208;-67
2022/09/29 06:50:00;;;;;;;22.33;3.73;;;16.20;87.70;;;;;;5052308;28;20216;-67
2022/09/29 06:52:28;;;;;;;17.97;3.17;;;16.10;87.90;;;;;;5054202;28;20181;-67
2022/09/29 06:54:55;;;;;;;17.53;3.27;;;16.20;88.40;;;;;;5054918;28;20178;-68
2022/09/29 06:57:23;;;;;;;19.37;3.50;;;16.20;88.40;;;;;;5051416;28;20180;-68
2022/09/29 06:59:51;;;;;;;22.43;4.23;;;16.20;88.50;;;;;;5054418;28;20178;-67
2022/09/29 07:02:18;;;;;;;14.40;3.13;;;16.20;89.00;;;;;;5049501;28;20187;-69
2022/09/29 07:04:47;;;;;;;26.80;4.47;;;16.20;89.00;;;;;;5048149;28;20194;-70
2022/09/29 07:07:15;;;;;;;23.50;4.90;;;16.30;89.30;;;;;;5047396;28;20324;-69
2022/09/29 07:09:43;;;;;;;36.23;5.53;;;16.30;89.20;;;;;;5053241;28;20184;-69
2022/09/29 07:12:11;;;;;;;24.07;4.90;;;16.40;89.40;;;;;;5053181;28;20214;-69
2022/09/29 07:14:38;;;;;;;24.07;4.37;;;16.30;89.00;;;;;;5053116;28;20184;-69
2022/09/29 07:17:05;;;;;;;31.23;5.60;;;16.30;88.70;;;;;;5054697;28;20181;-70
2022/09/29 07:19:33;;;;;;;33.97;5.83;;;16.20;88.50;;;;;;5054152;28;20180;-68
2022/09/29 07:22:01;;;;;;;28.50;5.10;;;16.30;88.50;;;;;;5053244;28;20185;-68
2022/09/29 07:24:28;;;;;;;35.53;6.30;;;16.30;88.10;;;;;;5039729;28;20202;-68
2022/09/29 07:26:55;;;;;;;30.63;6.20;;;16.30;87.90;;;;;;5041986;28;20235;-69
2022/09/29 07:29:23;;;;;;;44.10;8.23;;;16.30;88.10;;;;;;5054823;28;20174;-68
2022/09/29 07:31:51;;;;;;;38.60;7.07;;;16.30;88.10;;;;;;5054348;28;20611;-68
2022/09/29 07:34:20;;;;;;;36.97;5.50;;;16.30;87.90;;;;;;5053151;28;20203;-70
2022/09/29 07:36:47;;;;;;;39.27;6.63;;;16.40;87.40;;;;;;5048706;28;20626;-69
2022/09/29 07:39:15;;;;;;;35.37;6.23;;;16.50;87.50;;;;;;5054326;28;20171;-69
2022/09/29 07:41:42;;;;;;;27.43;5.40;;;16.40;86.80;;;;;;5043960;28;20224;-69
2022/09/29 07:44:10;;;;;;;21.23;4.97;;;16.50;84.80;;;;;;5051319;28;20546;-69
2022/09/29 07:46:37;;;;;;;17.47;4.03;;;16.50;82.70;;;;;;5052778;28;20199;-69
2022/09/29 07:49:05;;;;;;;18.20;4.43;;;16.50;82.30;;;;;;5052972;28;20246;-69
2022/09/29 07:51:32;;;;;;;12.23;3.20;;;16.60;81.20;;;;;;5053732;28;20749;-68
2022/09/29 07:54:03;;;;;;;22.53;4.03;;;16.60;80.30;;;;;;5053783;28;20206;-69
2022/09/29 07:56:32;;;;;;;18.60;4.13;;;16.60;81.10;;;;;;5053945;28;20172;-69
2022/09/29 07:59:01;;;;;;;26.27;4.30;;;16.60;81.10;;;;;;5052270;28;20211;-70
2022/09/29 08:01:28;;;;;;;24.20;4.10;;;16.70;81.10;;;;;;5051873;28;20189;-68
2022/09/29 08:03:56;;;;;;;19.83;4.13;;;16.70;80.00;;;;;;5053637;28;20185;-70
2022/09/29 08:06:25;;;;;;;19.20;3.60;;;16.70;79.60;;;;;;5053172;28;20213;-69
2022/09/29 08:08:52;;;;;;;15.70;3.33;;;16.70;79.20;;;;;;5053320;28;20198;-69
2022/09/29 08:11:21;;;;;;;24.87;4.90;;;16.70;78.90;;;;;;5053335;28;20188;-68
2022/09/29 08:13:52;;;;;;;23.33;4.23;;;16.80;79.40;;;;;;5051665;28;20187;-68
2022/09/29 08:16:19;;;;;;;19.90;3.90;;;16.70;79.30;;;;;;5037069;28;20184;-68
2022/09/29 08:18:47;;;;;;;20.70;4.00;;;16.80;79.40;;;;;;5053087;28;20518;-68
2022/09/29 08:21:14;;;;;;;21.00;4.67;;;16.80;79.40;;;;;;5052395;28;20184;-69
2022/09/29 08:23:43;;;;;;;21.27;4.43;;;16.80;79.10;;;;;;5049720;28;20324;-69
2022/09/29 08:26:15;;;;;;;21.70;4.57;;;16.80;79.10;;;;;;5040680;28;20213;-70
2022/09/29 08:28:44;;;;;;;23.27;4.90;;;16.80;79.40;;;;;;5046762;28;20178;-71
2022/09/29 08:31:20;;;;;;;19.57;3.77;;;16.80;78.70;;;;;;5051028;28;20195;-69
2022/09/29 08:33:51;;;;;;;17.53;3.70;;;16.80;77.70;;;;;;5052213;28;20188;-69
2022/09/29 08:36:20;;;;;;;19.20;4.10;;;16.80;77.60;;;;;;5053111;28;20181;-70
2022/09/29 08:38:50;;;;;;;22.80;5.33;;;16.80;77.50;;;;;;5048988;28;20739;-69
2022/09/29 08:41:33;;;;;;;17.17;3.90;;;16.80;77.80;;;;;;5039752;28;20219;-69
2022/09/29 08:44:25;;;;;;;22.07;4.33;;;16.80;78.00;;;;;;5037869;28;20182;-71
2022/09/29 08:46:58;;;;;;;24.63;5.40;;;16.80;78.50;;;;;;5050979;28;20211;-70
2022/09/29 08:49:46;;;;;;;22.10;4.70;;;16.90;78.60;;;;;;5052892;28;20518;-68
2022/09/29 08:52:35;;;;;;;24.83;4.60;;;16.80;79.40;;;;;;5051094;28;20192;-68
2022/09/29 08:55:18;;;;;;;21.77;5.30;;;16.70;80.50;;;;;;5048829;28;20282;-69
2022/09/29 08:57:54;;;;;;;22.90;5.10;;;16.70;81.00;;;;;;5038809;28;20288;-67
2022/09/29 09:00:32;;;;;;;19.20;4.37;;;16.60;81.30;;;;;;5051765;28;20233;-69
2022/09/29 09:03:12;;;;;;;19.87;5.07;;;16.60;80.80;;;;;;5040487;28;20187;-67
2022/09/29 09:05:42;;;;;;;26.00;5.60;;;16.70;81.00;;;;;;5050492;28;20178;-68
2022/09/29 09:08:12;;;;;;;28.03;5.20;;;16.70;81.20;;;;;;5052674;28;20397;-70
2022/09/29 09:10:47;;;;;;;25.07;4.27;;;16.60;81.30;;;;;;5052384;28;20544;-68
2022/09/29 09:13:57;;;;;;;24.97;4.87;;;16.70;81.20;;;;;;5052530;28;20199;-68
2022/09/29 09:16:38;;;;;;;23.50;4.53;;;16.60;82.30;;;;;;5029638;28;20271;-68
2022/09/29 09:19:05;;;;;;;14.77;3.87;;;16.50;82.60;;;;;;5051212;28;20273;-69
2022/09/29 09:21:45;;;;;;;22.03;3.73;;;16.30;83.60;;;;;;5052031;28;20164;-68
2022/09/29 09:24:47;;;;;;;21.97;4.97;;;16.20;84.20;;;;;;5052260;28;20571;-68
2022/09/29 09:27:25;;;;;;;19.57;3.40;;;16.10;84.90;;;;;;5043669;28;20620;-69
2022/09/29 09:30:02;;;;;;;14.13;3.93;;;15.90;84.70;;;;;;5052363;28;20192;-69
2022/09/29 09:32:36;;;;;;;21.03;4.30;;;15.80;84.70;;;;;;5047518;28;20180;-69
2022/09/29 09:35:42;;;;;;;17.50;3.77;;;15.90;84.10;;;;;;5047377;28;20208;-68
2022/09/29 09:38:18;;;;;;;28.97;4.97;;;16.00;84.00;;;;;;5048550;28;20189;-69
2022/09/29 09:40:50;;;;;;;20.33;4.40;;;16.00;83.20;;;;;;5050517;28;20180;-69
2022/09/29 09:43:27;;;;;;;18.13;4.10;;;16.00;83.50;;;;;;5047022;28;20198;-68
2022/09/29 09:46:24;;;;;;;17.00;4.20;;;15.90;82.40;;;;;;5057381;28;20206;-70
2022/09/29 09:48:57;;;;;;;18.07;4.70;;;15.80;82.40;;;;;;5055749;28;20196;-69
2022/09/29 09:51:53;;;;;;;13.07;3.80;;;15.80;81.60;;;;;;5050147;28;20184;-69
2022/09/29 09:54:42;;;;;;;13.43;3.47;;;15.80;82.10;;;;;;5045721;28;20176;-69
2022/09/29 09:57:41;;;;;;;18.60;3.40;;;15.80;82.20;;;;;;5049793;28;20696;-69
2022/09/29 10:00:24;;;;;;;17.60;3.97;;;15.80;82.60;;;;;;5044143;28;20267;-68
2022/09/29 10:02:57;;;;;;;26.47;4.97;;;15.80;83.10;;;;;;5055988;28;20180;-70
2022/09/29 10:05:35;;;;;;;16.30;3.63;;;15.70;84.50;;;;;;5056531;28;20176;-70
2022/09/29 10:08:03;;;;;;;17.30;4.80;;;15.60;85.90;;;;;;5062333;28;20188;-69
2022/09/29 10:10:31;;;;;;;27.17;4.77;;;15.40;87.20;;;;;;5057647;28;20547;-70
2022/09/29 10:13:03;;;;;;;21.50;4.50;;;15.30;87.80;;;;;;5042733;28;20638;-69
2022/09/29 10:15:42;;;;;;;23.90;5.03;;;15.30;87.90;;;;;;5056884;28;20191;-69
2022/09/29 10:18:13;;;;;;;20.73;4.33;;;15.30;88.10;;;;;;5065682;28;20573;-70
2022/09/29 10:20:41;;;;;;;20.33;4.80;;;15.30;87.90;;;;;;5055212;28;20176;-69
2022/09/29 10:23:26;;;;;;;20.17;4.00;;;15.30;87.60;;;;;;5053910;28;20242;-69
2022/09/29 10:26:16;;;;;;;20.40;3.80;;;15.30;87.30;;;;;;5055842;28;20254;-70
2022/09/29 10:29:16;;;;;;;17.53;3.97;;;15.30;86.70;;;;;;5053454;28;20184;-69
2022/09/29 10:31:56;;;;;;;19.67;4.33;;;15.40;86.10;;;;;;5054869;28;20651;-70
2022/09/29 10:34:25;;;;;;;11.53;3.27;;;15.50;85.40;;;;;;5052689;28;20175;-70
2022/09/29 10:37:00;;;;;;;10.90;3.30;;;15.40;84.10;;;;;;5052987;28;20172;-70
2022/09/29 10:39:47;;;;;;;19.20;2.77;;;15.20;84.60;;;;;;5055496;28;20182;-68
2022/09/29 10:42:36;;;;;;;11.50;2.83;;;15.10;84.70;;;;;;5056737;28;20265;-71
2022/09/29 10:45:47;;;;;;;12.43;2.90;;;15.00;84.80;;;;;;5068640;28;20183;-70
2022/09/29 10:48:17;;;;;;;13.23;2.80;;;15.00;84.30;;;;;;5028913;28;20665;-70
2022/09/29 10:50:54;;;;;;;16.27;3.57;;;15.20;84.50;;;;;;5055929;28;20253;-70
2022/09/29 10:53:37;;;;;;;16.63;3.27;;;15.20;84.70;;;;;;5055328;28;20226;-70
2022/09/29 10:56:16;;;;;;;17.77;3.67;;;15.30;84.30;;;;;;5061777;28;20179;-70
2022/09/29 10:58:51;;;;;;;18.90;3.77;;;15.30;84.80;;;;;;5056684;28;20173;-70
2022/09/29 11:01:20;;;;;;;25.23;4.73;;;15.30;85.00;;;;;;5044919;28;20180;-70
2022/09/29 11:04:02;;;;;;;22.10;4.27;;;15.30;85.30;;;;;;5054672;28;20211;-70
2022/09/29 11:06:35;;;;;;;12.87;3.40;;;15.20;85.70;;;;;;5048152;28;20678;-69
2022/09/29 11:09:29;;;;;;;19.07;4.17;;;15.10;86.20;;;;;;5054593;28;20176;-69
2022/09/29 11:11:58;;;;;;;20.20;3.80;;;15.10;86.20;;;;;;5054895;28;20188;-69
2022/09/29 11:14:30;;;;;;;19.30;4.17;;;15.10;86.40;;;;;;5066383;28;20193;-70
2022/09/29 11:17:18;;;;;;;21.70;3.57;;;15.10;86.30;;;;;;5055594;28;20547;-69
2022/09/29 11:19:46;;;;;;;21.20;4.70;;;15.10;85.80;;;;;;5058499;28;20179;-70
2022/09/29 11:22:37;;;;;;;20.53;3.87;;;15.10;85.40;;;;;;5054359;28;20639;-69
2022/09/29 11:25:21;;;;;;;16.67;3.63;;;15.10;85.10;;;;;;5057063;28;20184;-69
2022/09/29 11:28:01;;;;;;;22.30;3.33;;;15.10;84.80;;;;;;5054180;28;20219;-68
2022/09/29 11:30:36;;;;;;;23.83;4.73;;;15.10;84.50;;;;;;5055797;28;20520;-70
2022/09/29 11:33:13;;;;;;;20.23;3.67;;;15.00;84.20;;;;;;5054296;28;20175;-69
2022/09/29 11:35:53;;;;;;;13.53;3.80;;;15.00;84.20;;;;;;5053584;28;20526;-72
2022/09/29 11:38:33;;;;;;;12.93;2.90;;;15.00;84.20;;;;;;5052253;28;20204;-70
2022/09/29 11:41:03;;;;;;;17.90;3.27;;;15.00;84.20;;;;;;5066229;28;20629;-70
2022/09/29 11:43:43;;;;;;;19.47;3.60;;;15.00;84.40;;;;;;5062039;28;20187;-69
2022/09/29 11:46:30;;;;;;;18.07;3.83;;;15.00;84.40;;;;;;5054422;28;20563;-70
2022/09/29 11:49:03;;;;;;;22.47;4.10;;;15.10;84.20;;;;;;5047896;28;20656;-70
2022/09/29 11:52:02;;;;;;;20.27;4.20;;;15.10;84.10;;;;;;5055294;28;20188;-69
2022/09/29 11:54:59;;;;;;;21.67;4.37;;;15.20;83.70;;;;;;5044628;28;20632;-70
2022/09/29 11:57:49;;;;;;;20.63;3.73;;;15.20;83.70;;;;;;5046968;28;20184;-70
2022/09/29 12:00:19;;;;;;;25.13;4.63;;;15.20;83.40;;;;;;5051986;28;20193;-69
2022/09/29 12:03:08;;;;;;;20.73;3.93;;;15.20;83.60;;;;;;5053977;28;20182;-69
2022/09/29 12:06:15;;;;;;;24.27;3.83;;;15.20;83.40;;;;;;5054699;28;20552;-69
2022/09/29 12:09:01;;;;;;;18.00;4.13;;;15.30;83.20;;;;;;5052386;28;20188;-70
2022/09/29 12:11:39;;;;;;;27.27;5.53;;;15.20;83.10;;;;;;5044573;28;20231;-69
2022/09/29 12:14:42;;;;;;;13.30;3.67;;;15.30;83.10;;;;;;5052106;28;20254;-70
2022/09/29 12:17:14;;;;;;;19.87;3.97;;;15.30;83.20;;;;;;5049362;28;20187;-70
2022/09/29 12:19:44;;;;;;;22.10;4.23;;;15.30;82.90;;;;;;5057635;28;20623;-70
2022/09/29 12:22:18;;;;;;;14.07;3.13;;;15.30;82.90;;;;;;5051967;28;20172;-69
2022/09/29 12:24:56;;;;;;;17.47;3.33;;;15.30;81.90;;;;;;5057624;28;20188;-69
2022/09/29 12:27:31;;;;;;;11.53;2.70;;;15.50;79.30;;;;;;5049287;28;20318;-70
2022/09/29 12:30:17;;;;;;;18.90;3.33;;;15.80;76.40;;;;;;5053231;28;20179;-69
2022/09/29 12:32:52;;;;;;;10.13;2.60;;;15.90;74.90;;;;;;5047595;28;20534;-68
2022/09/29 12:35:35;;;;;;;19.30;2.80;;;16.00;73.30;;;;;;5040069;28;20179;-67
2022/09/29 12:38:19;;;;;;;17.13;3.60;;;16.20;73.20;;;;;;5052939;28;20180;-69
2022/09/29 12:41:03;;;;;;;11.63;2.93;;;16.20;73.20;;;;;;5053151;28;20179;-70
2022/09/29 12:43:38;;;;;;;19.47;3.60;;;16.20;73.10;;;;;;5050956;28;20586;-68
2022/09/29 12:46:10;;;;;;;21.07;3.43;;;16.20;73.70;;;;;;5050708;28;20204;-68
2022/09/29 12:49:07;;;;;;;18.10;3.73;;;16.10;75.70;;;;;;5052918;28;20283;-68
2022/09/29 12:51:46;;;;;;;17.67;3.80;;;16.00;77.90;;;;;;5034229;28;20185;-68
2022/09/29 12:54:46;;;;;;;20.57;4.30;;;15.80;79.10;;;;;;5051793;28;20175;-66
2022/09/29 12:57:22;;;;;;;17.50;4.47;;;15.70;79.40;;;;;;5044250;28;20175;-71
2022/09/29 13:00:07;;;;;;;16.03;4.10;;;15.70;79.20;;;;;;5050097;28;20168;-68
2022/09/29 13:03:16;;;;;;;19.40;3.57;;;15.60;79.30;;;;;;5045950;28;20219;-69
2022/09/29 13:06:06;;;;;;;13.60;4.20;;;15.60;79.60;;;;;;5051800;28;20188;-69
2022/09/29 13:08:40;;;;;;;26.67;4.17;;;15.60;80.20;;;;;;5036163;28;20691;-69
2022/09/29 13:11:36;;;;;;;16.80;3.37;;;15.60;79.90;;;;;;5053880;28;20213;-67
2022/09/29 13:14:30;;;;;;;24.00;4.00;;;15.50;79.10;;;;;;5049893;28;20175;-68
2022/09/29 13:17:34;;;;;;;17.40;3.60;;;15.70;77.70;;;;;;5052996;28;20277;-69
2022/09/29 13:20:14;;;;;;;19.50;3.80;;;15.70;77.10;;;;;;5052349;28;20179;-68
2022/09/29 13:22:50;;;;;;;14.90;3.43;;;15.80;76.90;;;;;;5052356;28;20317;-70